Time;durP1;ratioP1;P1;durP2;ratioP2;P2;SDS_P1;SDS_P2;PMS_P1;PMS_P2;Temp;Humidity;BMP_temperature;BMP_pressure;BME280_temperature;BME280_humidity;BME280_pressure;Samples;Min_cycle;Max_cycle;Signal;HPM_P1;HPM_P2
2023/07/30 00:00:51;;;;;;;5.28;2.38;;;;;;;19.89;58.31;100894.41;5140796;27;20054;-67
2023/07/30 00:03:19;;;;;;;5.63;2.05;;;;;;;19.88;58.40;100897.44;5141192;27;20575;-67
2023/07/30 00:05:53;;;;;;;6.68;2.33;;;;;;;19.86;58.15;100894.97;5144299;27;20453;-67
2023/07/30 00:08:21;;;;;;;8.20;2.70;;;;;;;19.85;58.31;100901.53;5140184;27;20051;-68
2023/07/30 00:10:48;;;;;;;7.07;2.65;;;;;;;19.85;58.14;100898.00;5141905;27;20047;-66
2023/07/30 00:13:17;;;;;;;4.82;1.90;;;;;;;19.83;58.16;100895.53;5143681;27;20070;-68
2023/07/30 00:15:47;;;;;;;6.38;1.80;;;;;;;19.81;58.13;100901.28;5142033;27;20050;-66
2023/07/30 00:18:16;;;;;;;4.13;1.85;;;;;;;19.80;58.28;100883.28;5143057;27;20104;-68
2023/07/30 00:20:44;;;;;;;5.55;1.92;;;;;;;19.79;58.25;100886.28;5141059;27;20050;-68
2023/07/30 00:23:11;;;;;;;6.55;2.33;;;;;;;19.78;58.28;100890.13;5142267;27;20513;-68
2023/07/30 00:25:39;;;;;;;6.72;2.35;;;;;;;19.75;58.35;100883.31;5141189;27;20051;-67
2023/07/30 00:28:07;;;;;;;8.45;2.55;;;;;;;19.74;58.24;100891.78;5140446;27;20039;-68
2023/07/30 00:30:35;;;;;;;6.57;1.70;;;;;;;19.72;58.28;100889.34;5138966;27;20051;-67
2023/07/30 00:33:04;;;;;;;6.72;2.25;;;;;;;19.71;58.19;100887.69;5141493;27;20143;-68
2023/07/30 00:35:32;;;;;;;9.20;2.78;;;;;;;19.69;58.32;100891.81;5142707;27;20046;-67
2023/07/30 00:38:00;;;;;;;5.18;1.95;;;;;;;19.68;58.28;100895.63;5144111;27;20051;-67
2023/07/30 00:40:27;;;;;;;8.25;2.53;;;;;;;19.66;58.14;100897.81;5145816;27;20047;-66
2023/07/30 00:42:55;;;;;;;6.28;2.25;;;;;;;19.65;58.24;100897.00;5138391;27;20055;-68
2023/07/30 00:45:23;;;;;;;6.53;2.45;;;;;;;19.63;58.32;100890.19;5146152;27;20043;-67
2023/07/30 00:47:51;;;;;;;4.13;1.98;;;;;;;19.60;58.04;100891.59;5142915;27;20047;-68
2023/07/30 00:50:20;;;;;;;6.00;2.25;;;;;;;19.59;58.20;100895.41;5146192;27;20050;-67
2023/07/30 00:52:48;;;;;;;5.43;2.08;;;;;;;19.58;58.22;100901.94;5140723;27;20069;-67
2023/07/30 00:55:16;;;;;;;7.28;2.72;;;;;;;19.57;58.00;100905.78;5137692;27;20100;-67
2023/07/30 00:57:45;;;;;;;6.90;2.28;;;;;;;19.56;58.15;100908.78;5143230;27;20039;-67
2023/07/30 01:00:15;;;;;;;6.70;2.22;;;;;;;19.53;58.13;100903.88;5139801;27;20147;-67
2023/07/30 01:02:43;;;;;;;4.28;1.80;;;;;;;19.52;58.14;100904.97;5138378;27;20047;-67
2023/07/30 01:05:10;;;;;;;4.53;2.15;;;;;;;19.49;58.17;100901.69;5141262;27;20054;-67
2023/07/30 01:07:39;;;;;;;6.65;2.10;;;;;;;19.48;58.42;100905.50;5141342;27;20062;-68
2023/07/30 01:10:08;;;;;;;6.93;1.75;;;;;;;19.45;58.22;100897.88;5137102;27;20054;-67
2023/07/30 01:12:38;;;;;;;7.85;2.47;;;;;;;19.46;58.26;100902.25;5136617;27;20042;-67
2023/07/30 01:15:08;;;;;;;8.88;2.80;;;;;;;19.45;58.07;100914.25;5141423;27;20042;-68
2023/07/30 01:17:36;;;;;;;8.75;2.10;;;;;;;19.45;58.04;100921.59;5140387;27;20039;-67
2023/07/30 01:20:05;;;;;;;5.47;2.38;;;;;;;19.42;58.27;100920.25;5141053;27;20039;-67
2023/07/30 01:22:34;;;;;;;4.13;1.85;;;;;;;19.40;58.17;100927.06;5141088;27;20051;-67
2023/07/30 01:25:02;;;;;;;4.70;2.42;;;;;;;19.41;58.18;100928.72;5140709;27;20047;-69
2023/07/30 01:27:32;;;;;;;7.32;2.35;;;;;;;19.38;58.41;100924.63;5139212;27;20084;-67
2023/07/30 01:30:07;;;;;;;4.22;2.20;;;;;;;19.37;58.19;100924.91;5143889;27;20069;-67
2023/07/30 01:32:36;;;;;;;5.55;2.45;;;;;;;19.35;58.16;100929.81;5139058;27;20043;-67
2023/07/30 01:35:07;;;;;;;4.68;2.30;;;;;;;19.33;58.44;100927.38;5137246;27;20072;-69
2023/07/30 01:37:39;;;;;;;4.82;2.22;;;;;;;19.32;58.30;100939.38;5143045;27;20043;-68
2023/07/30 01:40:09;;;;;;;8.20;2.60;;;;;;;19.32;58.22;100941.28;5142167;27;20257;-67
2023/07/30 01:42:37;;;;;;;4.18;2.08;;;;;;;19.30;58.49;100938.84;5142937;27;20039;-67
2023/07/30 01:45:06;;;;;;;8.50;2.28;;;;;;;19.31;58.35;100939.66;5143584;27;20043;-68
2023/07/30 01:47:34;;;;;;;5.78;2.15;;;;;;;19.28;58.31;100940.19;5143848;27;20073;-68
2023/07/30 01:50:02;;;;;;;5.18;2.20;;;;;;;19.27;58.11;100939.38;5142176;27;20158;-67
2023/07/30 01:52:30;;;;;;;10.27;2.50;;;;;;;19.25;58.11;100944.28;5143021;27;20042;-68
2023/07/30 01:55:00;;;;;;;7.18;2.70;;;;;;;19.23;57.96;100941.03;5138700;27;20054;-67
2023/07/30 01:57:28;;;;;;;9.43;2.35;;;;;;;19.23;58.23;100948.41;5140950;27;20129;-68
2023/07/30 01:59:56;;;;;;;7.70;2.30;;;;;;;19.21;58.13;100951.41;5131160;27;20128;-67
2023/07/30 02:02:24;;;;;;;7.10;2.38;;;;;;;19.20;58.04;100947.03;5142139;27;20051;-67
2023/07/30 02:04:52;;;;;;;6.03;1.95;;;;;;;19.18;58.23;100950.03;5138372;27;20054;-67
2023/07/30 02:07:20;;;;;;;5.55;2.22;;;;;;;19.16;58.39;100941.31;5143013;27;20112;-68
2023/07/30 02:09:47;;;;;;;5.20;2.42;;;;;;;19.17;58.44;100950.31;5141493;27;20047;-67
2023/07/30 02:12:16;;;;;;;5.80;2.55;;;;;;;19.16;58.49;100937.78;5139208;27;20044;-67
2023/07/30 02:14:44;;;;;;;10.93;2.58;;;;;;;19.13;58.31;100936.44;5137152;27;20099;-68
2023/07/30 02:17:12;;;;;;;8.35;2.63;;;;;;;19.12;58.56;100948.41;5141731;27;20076;-67
2023/07/30 02:19:40;;;;;;;9.43;2.30;;;;;;;19.10;58.36;100926.09;5139999;27;20135;-67
2023/07/30 02:22:07;;;;;;;7.95;2.67;;;;;;;19.10;58.51;100936.97;5142624;27;20051;-68
2023/07/30 02:24:35;;;;;;;9.60;2.53;;;;;;;19.08;58.42;100933.72;5139544;27;20043;-67
2023/07/30 02:27:03;;;;;;;4.35;1.75;;;;;;;19.07;58.40;100928.53;5138595;27;20138;-68
2023/07/30 02:29:32;;;;;;;8.63;3.03;;;;;;;19.06;58.71;100933.22;5139329;28;20050;-68
2023/07/30 02:32:00;;;;;;;6.60;2.33;;;;;;;19.03;58.55;100935.66;5136481;28;20043;-68
2023/07/30 02:34:28;;;;;;;10.88;2.97;;;;;;;19.03;58.62;100938.38;5139918;28;20047;-68
2023/07/30 02:36:56;;;;;;;5.57;2.28;;;;;;;19.02;58.86;100931.31;5138966;27;20103;-68
2023/07/30 02:39:23;;;;;;;9.50;2.65;;;;;;;19.00;58.86;100931.59;5141181;27;20107;-67
2023/07/30 02:41:51;;;;;;;10.50;2.80;;;;;;;19.00;59.01;100922.59;5140287;28;20142;-67
2023/07/30 02:44:19;;;;;;;5.55;2.10;;;;;;;19.00;59.03;100931.59;5136080;28;20059;-68
2023/07/30 02:46:48;;;;;;;8.65;2.78;;;;;;;18.99;58.98;100934.59;5140340;28;20047;-67
2023/07/30 02:49:16;;;;;;;5.45;2.50;;;;;;;18.98;58.96;100925.59;5139133;28;20047;-68
2023/07/30 02:51:48;;;;;;;10.48;2.70;;;;;;;18.96;59.18;100935.13;5141926;28;20035;-68
2023/07/30 02:54:16;;;;;;;9.15;2.85;;;;;;;18.96;59.10;100935.13;5138360;27;20048;-68
2023/07/30 02:56:45;;;;;;;8.05;2.45;;;;;;;18.95;58.90;100934.31;5139932;28;20114;-68
2023/07/30 02:59:13;;;;;;;8.88;2.47;;;;;;;18.94;58.97;100946.31;5143297;27;20047;-68
2023/07/30 03:01:40;;;;;;;9.80;2.08;;;;;;;18.93;59.16;100944.69;5146176;27;20050;-68
2023/07/30 03:04:10;;;;;;;7.35;2.47;;;;;;;18.92;59.17;100947.66;5144336;27;20047;-68
2023/07/30 03:06:38;;;;;;;6.15;2.45;;;;;;;18.90;59.21;100950.66;5140812;27;20119;-67
2023/07/30 03:09:07;;;;;;;9.20;2.67;;;;;;;18.90;59.23;100947.13;5144976;27;20035;-66
2023/07/30 03:11:35;;;;;;;6.50;2.40;;;;;;;18.89;59.48;100948.22;5141662;27;20047;-67
2023/07/30 03:14:03;;;;;;;7.93;2.20;;;;;;;18.89;59.35;100953.66;5140853;27;20092;-67
2023/07/30 03:16:31;;;;;;;8.60;2.60;;;;;;;18.87;59.27;100948.50;5145140;27;20522;-67
2023/07/30 03:18:59;;;;;;;10.07;2.60;;;;;;;18.88;59.43;100957.47;5140939;27;20043;-67
2023/07/30 03:21:28;;;;;;;10.80;2.97;;;;;;;18.87;59.52;100953.13;5143618;27;20058;-68
2023/07/30 03:23:56;;;;;;;9.93;2.50;;;;;;;18.86;59.33;100952.31;5144080;27;20069;-68
2023/07/30 03:26:23;;;;;;;4.97;2.45;;;;;;;18.86;59.49;100946.88;5142904;27;20047;-67
2023/07/30 03:28:51;;;;;;;5.60;1.88;;;;;;;18.85;59.63;100948.78;5142104;27;20100;-67
2023/07/30 03:31:19;;;;;;;6.00;2.40;;;;;;;18.85;59.47;100954.22;5140401;27;20051;-66
2023/07/30 03:33:47;;;;;;;10.93;2.65;;;;;;;18.83;59.59;100948.22;5144574;27;20050;-67
2023/07/30 03:36:15;;;;;;;12.70;3.05;;;;;;;18.83;59.44;100948.22;5138274;27;20120;-68
2023/07/30 03:38:44;;;;;;;8.73;2.42;;;;;;;18.83;59.64;100950.13;5142338;27;20051;-67
2023/07/30 03:41:12;;;;;;;11.70;3.30;;;;;;;18.83;59.54;100952.84;5140608;27;20090;-67
2023/07/30 03:43:40;;;;;;;7.32;2.20;;;;;;;18.83;59.63;100952.84;5146576;27;20043;-68
2023/07/30 03:46:08;;;;;;;7.88;2.65;;;;;;;18.84;59.45;100957.22;5139891;27;20100;-68
2023/07/30 03:48:35;;;;;;;8.73;2.50;;;;;;;18.82;59.68;100953.94;5146996;27;20043;-68
2023/07/30 03:51:03;;;;;;;6.60;2.67;;;;;;;18.82;59.90;100956.66;5146997;27;20051;-67
2023/07/30 03:53:31;;;;;;;8.95;2.55;;;;;;;18.81;59.66;100969.47;5144745;27;20047;-68
2023/07/30 03:56:00;;;;;;;8.45;2.33;;;;;;;18.80;59.78;100964.31;5142083;27;20076;-66
2023/07/30 03:58:30;;;;;;;6.00;2.40;;;;;;;18.79;60.00;100962.66;5146480;27;20174;-68
2023/07/30 04:00:58;;;;;;;10.75;3.05;;;;;;;18.80;59.66;100977.91;5144088;27;20047;-67
2023/07/30 04:03:25;;;;;;;9.85;3.15;;;;;;;18.77;59.88;100973.84;5146575;27;20138;-68
2023/07/30 04:05:53;;;;;;;7.90;2.60;;;;;;;18.78;59.93;100972.75;5139219;27;20051;-67
2023/07/30 04:08:21;;;;;;;9.27;2.30;;;;;;;18.78;59.89;100971.94;5144518;27;20047;-66
2023/07/30 04:10:49;;;;;;;8.80;3.17;;;;;;;18.76;59.91;100968.66;5144685;27;20069;-66
2023/07/30 04:13:18;;;;;;;8.40;2.15;;;;;;;18.75;60.12;100973.28;5141657;27;20115;-68
2023/07/30 04:15:48;;;;;;;11.25;2.97;;;;;;;18.74;60.02;100968.94;5142909;27;20067;-66
2023/07/30 04:18:16;;;;;;;7.28;2.85;;;;;;;18.75;60.17;100964.31;5140074;27;20104;-66
2023/07/30 04:20:44;;;;;;;8.48;2.70;;;;;;;18.71;60.08;100961.31;5141478;27;20039;-67
2023/07/30 04:23:12;;;;;;;11.77;3.08;;;;;;;18.74;60.16;100971.66;5143633;27;20068;-67
2023/07/30 04:25:39;;;;;;;9.40;2.50;;;;;;;18.75;60.28;100967.84;5141807;27;20149;-67
2023/07/30 04:28:07;;;;;;;11.18;2.60;;;;;;;18.72;60.28;100970.28;5142422;27;20047;-67
2023/07/30 04:30:36;;;;;;;7.18;2.67;;;;;;;18.73;60.09;100972.75;5138654;27;20048;-67
2023/07/30 04:33:04;;;;;;;7.88;2.72;;;;;;;18.71;60.36;100972.19;5143395;27;20047;-67
2023/07/30 04:35:32;;;;;;;8.63;2.65;;;;;;;18.70;60.47;100964.31;5142877;27;20068;-67
2023/07/30 04:38:00;;;;;;;7.00;3.30;;;;;;;18.70;60.42;100970.56;5141546;27;20050;-67
2023/07/30 04:40:28;;;;;;;6.60;2.78;;;;;;;18.70;60.19;100973.28;5145515;27;20067;-66
2023/07/30 04:42:55;;;;;;;9.45;3.00;;;;;;;18.71;60.43;100968.66;5140038;27;20096;-67
2023/07/30 04:45:23;;;;;;;8.02;2.50;;;;;;;18.70;60.63;100961.59;5143505;27;20043;-67
2023/07/30 04:47:52;;;;;;;12.10;3.13;;;;;;;18.70;60.54;100969.75;5145564;27;20111;-67
2023/07/30 04:50:20;;;;;;;11.15;3.72;;;;;;;18.69;60.68;100971.66;5148877;27;20043;-67
2023/07/30 04:52:48;;;;;;;11.27;2.95;;;;;;;18.68;60.60;100964.56;5146611;27;20078;-67
2023/07/30 04:55:16;;;;;;;11.68;3.10;;;;;;;18.58;60.79;100959.09;5140043;27;20515;-67
2023/07/30 04:57:44;;;;;;;8.18;2.80;;;;;;;18.66;60.58;100969.47;5144578;27;20047;-67
2023/07/30 05:00:13;;;;;;;8.48;3.10;;;;;;;18.67;60.62;100973.84;5145399;27;20039;-67
2023/07/30 05:02:40;;;;;;;7.47;2.67;;;;;;;18.66;60.62;100968.66;5143775;27;20055;-67
2023/07/30 05:05:10;;;;;;;7.20;2.83;;;;;;;18.65;60.58;100978.72;5141544;27;20126;-67
2023/07/30 05:07:38;;;;;;;9.70;2.78;;;;;;;18.65;60.82;100980.63;5139647;27;20066;-68
2023/07/30 05:10:10;;;;;;;11.35;3.28;;;;;;;18.64;60.87;100989.91;5141744;27;20082;-68
2023/07/30 05:12:38;;;;;;;9.25;3.00;;;;;;;18.61;61.05;100983.09;5142150;27;20039;-67
2023/07/30 05:15:07;;;;;;;10.98;3.75;;;;;;;18.62;60.95;100982.00;5139158;27;20047;-68
2023/07/30 05:17:35;;;;;;;9.73;3.03;;;;;;;18.63;60.97;100999.16;5143583;27;20505;-67
2023/07/30 05:20:03;;;;;;;13.77;4.15;;;;;;;18.62;61.29;100998.34;5142770;27;20483;-67
2023/07/30 05:22:32;;;;;;;12.23;3.80;;;;;;;18.61;61.18;101001.31;5142734;27;20192;-67
2023/07/30 05:24:59;;;;;;;11.70;2.72;;;;;;;18.52;61.45;100985.50;5142461;27;20043;-68
2023/07/30 05:27:28;;;;;;;11.48;3.10;;;;;;;18.61;61.05;101004.06;5141539;27;20051;-68
2023/07/30 05:29:56;;;;;;;13.10;3.30;;;;;;;18.60;61.27;100996.94;5143339;27;20417;-65
2023/07/30 05:32:24;;;;;;;10.40;3.58;;;;;;;18.59;61.54;101000.75;5139191;27;20068;-66
2023/07/30 05:34:52;;;;;;;10.63;3.65;;;;;;;18.57;61.51;100998.31;5142677;27;20081;-65
2023/07/30 05:37:20;;;;;;;7.88;2.45;;;;;;;18.59;61.34;100995.31;5139645;27;20047;-64
2023/07/30 05:39:49;;;;;;;12.75;3.03;;;;;;;18.58;61.69;100999.94;5140942;27;20051;-64
2023/07/30 05:42:17;;;;;;;12.65;3.65;;;;;;;18.57;61.53;101001.03;5144758;27;20058;-64
2023/07/30 05:44:45;;;;;;;14.77;3.67;;;;;;;18.56;61.69;100991.22;4788098;27;10000500;-65
2023/07/30 05:47:12;;;;;;;14.60;3.85;;;;;;;18.57;61.33;100992.03;5136382;27;20112;-65
2023/07/30 05:49:40;;;;;;;15.98;3.65;;;;;;;18.58;61.68;100991.78;5137834;27;20043;-67
2023/07/30 05:52:08;;;;;;;11.98;3.22;;;;;;;18.57;61.58;100995.56;5139321;27;20050;-66
2023/07/30 05:54:36;;;;;;;14.10;3.50;;;;;;;18.59;61.25;100989.88;5138205;27;20264;-65
2023/07/30 05:57:05;;;;;;;9.60;3.10;;;;;;;18.59;61.49;100993.41;5136707;27;20051;-64
2023/07/30 05:59:33;;;;;;;11.23;3.15;;;;;;;18.60;61.64;100997.75;5138734;27;20043;-64
2023/07/30 06:02:03;;;;;;;9.65;3.35;;;;;;;18.58;61.96;100999.94;5141651;27;20091;-64
2023/07/30 06:04:31;;;;;;;11.32;3.15;;;;;;;18.56;61.76;100993.94;5144799;27;20485;-65
2023/07/30 06:07:00;;;;;;;11.98;3.40;;;;;;;18.58;61.68;100996.41;5137748;27;20065;-65
2023/07/30 06:09:28;;;;;;;15.35;3.30;;;;;;;18.58;61.85;100999.94;5143694;27;20051;-64
2023/07/30 06:11:57;;;;;;;10.48;3.22;;;;;;;18.58;61.85;100994.50;5140998;27;20078;-64
2023/07/30 06:14:27;;;;;;;11.23;2.97;;;;;;;18.56;61.89;101001.28;5141255;27;20055;-65
2023/07/30 06:16:55;;;;;;;11.75;3.22;;;;;;;18.58;61.96;101001.84;5144073;27;20069;-64
2023/07/30 06:19:23;;;;;;;11.32;3.40;;;;;;;18.59;61.68;101011.63;5138935;27;20035;-64
2023/07/30 06:21:51;;;;;;;16.00;3.22;;;;;;;18.59;61.99;101009.72;5141598;27;20043;-64
2023/07/30 06:24:18;;;;;;;17.77;4.55;;;;;;;18.60;62.10;101005.09;5140250;27;20080;-64
2023/07/30 06:26:46;;;;;;;12.38;4.13;;;;;;;18.59;62.08;101011.63;5140532;27;20066;-63
2023/07/30 06:29:14;;;;;;;16.20;4.22;;;;;;;18.51;62.15;100983.06;5143386;27;20077;-65
2023/07/30 06:31:43;;;;;;;10.50;3.60;;;;;;;18.58;62.29;101004.56;5136460;27;20043;-64
2023/07/30 06:34:11;;;;;;;9.15;2.83;;;;;;;18.58;62.36;101004.56;5143616;27;20673;-65
2023/07/30 06:36:39;;;;;;;12.23;3.30;;;;;;;18.57;62.47;101003.75;5145369;27;20068;-64
2023/07/30 06:39:06;;;;;;;15.00;3.28;;;;;;;18.58;62.14;101010.81;5145848;27;20123;-64
2023/07/30 06:41:34;;;;;;;11.35;3.13;;;;;;;18.58;62.11;101015.44;5142279;27;20035;-64
2023/07/30 06:44:03;;;;;;;15.80;3.38;;;;;;;18.60;62.28;101021.44;5141570;27;20403;-64
2023/07/30 06:46:31;;;;;;;10.10;2.63;;;;;;;18.60;62.03;101014.09;5145202;27;20047;-63
2023/07/30 06:49:00;;;;;;;12.48;3.38;;;;;;;18.53;62.22;100995.31;5143606;27;20047;-63
2023/07/30 06:51:29;;;;;;;12.68;3.15;;;;;;;18.58;62.22;101010.81;5143063;27;20529;-66
2023/07/30 06:53:57;;;;;;;10.52;3.05;;;;;;;18.62;62.34;101008.41;5146592;27;20046;-65
2023/07/30 06:56:25;;;;;;;12.00;3.65;;;;;;;18.61;62.35;101015.75;5147735;27;20107;-64
2023/07/30 06:58:53;;;;;;;14.07;3.33;;;;;;;18.61;62.22;101009.50;5138442;27;20066;-65
2023/07/30 07:01:21;;;;;;;13.77;3.83;;;;;;;18.61;62.35;101006.78;5144579;27;20043;-64
2023/07/30 07:03:49;;;;;;;14.20;4.57;;;;;;;18.61;62.32;101020.38;5148749;27;20043;-66
2023/07/30 07:06:18;;;;;;;11.40;3.22;;;;;;;18.62;62.68;101017.38;5141343;27;20081;-64
2023/07/30 07:08:45;;;;;;;12.70;3.20;;;;;;;18.64;62.81;101038.91;5153308;27;20051;-66
2023/07/30 07:11:13;;;;;;;12.85;2.83;;;;;;;18.64;62.79;101034.28;5147756;27;20051;-65
2023/07/30 07:13:41;;;;;;;13.40;3.95;;;;;;;18.65;62.54;101035.09;5146391;27;20668;-64
2023/07/30 07:16:09;;;;;;;12.23;3.15;;;;;;;18.64;62.71;101042.44;5142121;27;20084;-63
2023/07/30 07:18:36;;;;;;;16.30;3.20;;;;;;;18.62;62.86;101033.72;5147051;27;20051;-64
2023/07/30 07:21:04;;;;;;;14.30;4.05;;;;;;;18.62;62.76;101036.44;5142249;27;20088;-64
2023/07/30 07:23:33;;;;;;;13.80;3.55;;;;;;;18.62;62.67;101033.72;5147985;27;20528;-63
2023/07/30 07:26:01;;;;;;;13.77;3.53;;;;;;;18.69;62.81;101028.00;5146272;27;20533;-64
2023/07/30 07:28:29;;;;;;;11.82;3.47;;;;;;;18.66;62.61;101028.56;5148927;27;20115;-62
2023/07/30 07:30:57;;;;;;;10.48;3.28;;;;;;;18.67;63.19;101030.19;5145143;27;20527;-63
2023/07/30 07:33:24;;;;;;;11.75;3.55;;;;;;;18.73;62.87;101029.09;5144549;27;20039;-63
2023/07/30 07:35:52;;;;;;;9.68;3.55;;;;;;;18.71;62.68;101039.44;5145215;27;20099;-65
2023/07/30 07:38:21;;;;;;;15.25;3.83;;;;;;;18.73;63.50;101038.09;5149152;27;20043;-64
2023/07/30 07:40:50;;;;;;;14.73;3.75;;;;;;;18.78;62.53;101029.94;5145570;27;20127;-65
2023/07/30 07:43:19;;;;;;;14.48;3.03;;;;;;;18.74;62.85;101036.19;5146610;27;20051;-67
2023/07/30 07:45:46;;;;;;;15.27;3.55;;;;;;;18.70;63.05;101044.06;5140859;27;20062;-68
2023/07/30 07:48:14;;;;;;;11.68;3.00;;;;;;;18.70;62.99;101038.63;5136703;27;20419;-64
2023/07/30 07:50:42;;;;;;;14.50;3.42;;;;;;;18.70;62.95;101040.53;5131489;27;20035;-63
2023/07/30 07:53:10;;;;;;;10.88;3.47;;;;;;;18.77;62.91;101041.09;5131367;27;20093;-63
2023/07/30 07:55:37;;;;;;;15.43;3.45;;;;;;;18.74;62.96;101057.97;5127285;27;20104;-63
2023/07/30 07:58:06;;;;;;;14.88;3.63;;;;;;;18.76;62.71;101042.19;5136245;27;20112;-64
2023/07/30 08:00:34;;;;;;;13.10;3.20;;;;;;;18.74;62.75;101042.44;5144291;27;20043;-61
2023/07/30 08:03:02;;;;;;;14.15;3.05;;;;;;;18.74;62.90;101045.16;4785353;27;10000382;-64
2023/07/30 08:05:30;;;;;;;12.77;2.97;;;;;;;18.77;63.17;101039.19;5136856;27;20047;-64
2023/07/30 08:07:57;;;;;;;12.20;2.75;;;;;;;18.78;62.90;101042.72;5141762;27;20035;-63
2023/07/30 08:10:25;;;;;;;18.33;3.88;;;;;;;18.79;62.80;101028.00;5141629;27;20047;-64
2023/07/30 08:12:53;;;;;;;14.75;3.03;;;;;;;18.82;62.94;101032.91;5137760;27;20042;-63
2023/07/30 08:15:22;;;;;;;11.90;3.53;;;;;;;18.80;62.81;101049.53;5143475;27;20042;-63
2023/07/30 08:17:50;;;;;;;14.93;3.72;;;;;;;18.78;62.95;101048.97;5140362;27;20476;-63
2023/07/30 08:20:18;;;;;;;12.68;3.72;;;;;;;18.79;63.01;101061.50;5148013;27;20055;-63
2023/07/30 08:22:46;;;;;;;15.60;3.92;;;;;;;18.81;62.91;101056.63;5142111;27;20043;-62
2023/07/30 08:25:14;;;;;;;12.88;3.50;;;;;;;18.83;62.96;101073.50;5144133;27;20057;-63
2023/07/30 08:27:42;;;;;;;11.15;2.70;;;;;;;18.83;62.76;101062.59;5139866;27;20058;-63
2023/07/30 08:30:10;;;;;;;14.23;3.20;;;;;;;18.85;62.78;101075.94;5141956;27;20047;-65
2023/07/30 08:32:41;;;;;;;17.15;4.85;;;;;;;18.83;62.64;101056.34;5139796;27;20348;-65
2023/07/30 08:35:09;;;;;;;12.30;3.17;;;;;;;18.82;62.63;101058.25;5143012;27;20047;-64
2023/07/30 08:37:37;;;;;;;12.50;3.63;;;;;;;18.82;62.66;101055.53;5143196;27;20043;-63
2023/07/30 08:40:06;;;;;;;15.93;4.03;;;;;;;18.84;63.14;101052.53;5141222;27;20081;-63
2023/07/30 08:42:34;;;;;;;15.75;3.45;;;;;;;18.82;62.85;101055.53;5134289;27;20096;-64
2023/07/30 08:45:06;;;;;;;19.45;3.67;;;;;;;18.85;62.69;101063.16;5142250;27;20047;-63
2023/07/30 08:47:35;;;;;;;13.52;3.42;;;;;;;18.85;62.79;101065.06;5143500;27;20043;-64
2023/07/30 08:50:04;;;;;;;16.90;3.85;;;;;;;18.85;62.66;101063.16;5144854;27;20511;-64
2023/07/30 08:52:36;;;;;;;15.68;3.30;;;;;;;18.90;62.60;101058.78;5147394;27;20050;-62
2023/07/30 08:55:04;;;;;;;15.70;3.67;;;;;;;19.01;62.43;101060.44;5142923;27;20039;-64
2023/07/30 08:57:33;;;;;;;13.32;3.28;;;;;;;18.96;62.25;101053.06;5146532;27;20047;-63
2023/07/30 09:00:05;;;;;;;13.82;3.33;;;;;;;18.94;62.63;101047.09;5134308;27;20039;-62
2023/07/30 09:02:38;;;;;;;12.27;2.90;;;;;;;18.93;62.53;101044.63;5146384;27;20043;-62
2023/07/30 09:05:08;;;;;;;12.15;3.33;;;;;;;18.92;62.41;101037.56;5145031;27;20111;-64
2023/07/30 09:07:35;;;;;;;17.95;4.00;;;;;;;19.01;62.24;101044.09;5146161;27;20058;-62
2023/07/30 09:10:04;;;;;;;15.20;4.00;;;;;;;18.95;62.14;101040.53;5140693;27;20043;-64
2023/07/30 09:12:32;;;;;;;10.48;2.95;;;;;;;18.93;62.11;101040.00;5143771;27;20068;-62
2023/07/30 09:15:00;;;;;;;17.92;3.70;;;;;;;18.95;62.35;101037.00;5146117;27;20046;-62
2023/07/30 09:17:28;;;;;;;16.92;3.70;;;;;;;18.98;62.25;101044.63;5144126;27;20047;-62
2023/07/30 09:19:56;;;;;;;14.60;3.05;;;;;;;18.97;61.93;101038.38;5142483;27;20150;-62
2023/07/30 09:22:29;;;;;;;8.70;2.30;;;;;;;18.96;62.01;101038.63;5146027;27;20035;-62
2023/07/30 09:24:58;;;;;;;12.10;3.20;;;;;;;18.96;62.03;101052.25;5142076;27;20043;-64
2023/07/30 09:27:27;;;;;;;15.65;3.72;;;;;;;18.97;61.95;101051.16;5145647;27;20047;-64
2023/07/30 09:29:56;;;;;;;13.52;2.92;;;;;;;18.99;62.17;101065.34;5145475;27;20043;-64
2023/07/30 09:32:27;;;;;;;16.00;2.95;;;;;;;18.99;62.06;101051.72;5141829;27;20063;-62
2023/07/30 09:34:55;;;;;;;13.77;2.88;;;;;;;19.02;61.98;101053.88;5140547;27;20134;-64
2023/07/30 09:37:23;;;;;;;13.05;3.22;;;;;;;19.02;61.98;101060.16;5137154;27;20489;-62
2023/07/30 09:39:52;;;;;;;9.75;2.78;;;;;;;19.12;62.21;101051.94;5145517;27;20085;-64
2023/07/30 09:42:20;;;;;;;10.75;2.40;;;;;;;19.17;62.13;101062.03;5137312;27;20199;-65
2023/07/30 09:44:48;;;;;;;11.40;2.85;;;;;;;19.14;61.46;101048.94;5143790;27;20485;-64
2023/07/30 09:47:16;;;;;;;14.35;3.10;;;;;;;19.12;61.59;101059.31;5144495;27;20035;-65
2023/07/30 09:49:44;;;;;;;12.07;2.78;;;;;;;19.13;61.39;101053.59;5144449;27;20043;-64
2023/07/30 09:52:14;;;;;;;11.02;2.60;;;;;;;19.09;61.57;101049.78;5139207;27;20050;-63
2023/07/30 09:54:42;;;;;;;9.95;2.55;;;;;;;19.11;61.66;101049.50;5145127;27;20079;-64
2023/07/30 09:57:11;;;;;;;9.18;2.42;;;;;;;19.13;61.81;101052.75;5145351;27;20047;-64
2023/07/30 09:59:39;;;;;;;13.65;2.42;;;;;;;19.13;61.64;101050.03;5140205;27;20069;-63
2023/07/30 10:02:09;;;;;;;8.80;2.85;;;;;;;19.10;61.65;101059.56;5142910;27;20418;-62
2023/07/30 10:04:41;;;;;;;10.82;2.42;;;;;;;19.10;61.56;101058.75;5135968;27;20289;-64
2023/07/30 10:07:15;;;;;;;14.40;2.95;;;;;;;19.12;61.82;101062.03;5142180;27;20043;-63
2023/07/30 10:09:46;;;;;;;8.23;2.25;;;;;;;19.16;61.55;101063.94;5145215;27;20047;-64
2023/07/30 10:12:18;;;;;;;12.82;3.03;;;;;;;19.19;61.13;101078.91;5144880;27;20115;-63
2023/07/30 10:14:45;;;;;;;12.43;3.13;;;;;;;19.19;61.04;101068.03;5144501;27;20468;-64
2023/07/30 10:17:13;;;;;;;10.15;2.88;;;;;;;19.17;60.83;101075.66;5143706;27;20081;-64
2023/07/30 10:19:41;;;;;;;7.70;2.17;;;;;;;19.17;60.62;101065.56;5143261;27;20104;-64
2023/07/30 10:22:25;;;;;;;7.03;2.10;;;;;;;19.19;60.76;101076.19;5137458;27;20043;-63
2023/07/30 10:25:00;;;;;;;8.98;2.28;;;;;;;19.24;60.75;101076.19;5140621;27;20051;-62
2023/07/30 10:27:39;;;;;;;10.07;2.40;;;;;;;19.19;60.39;101068.03;5132149;27;20051;-63
2023/07/30 10:30:11;;;;;;;9.82;2.30;;;;;;;19.21;60.36;101078.66;5134569;27;20280;-64
2023/07/30 10:32:40;;;;;;;9.70;2.38;;;;;;;19.21;60.26;101071.28;5140275;28;20095;-63
2023/07/30 10:35:09;;;;;;;7.78;2.75;;;;;;;19.23;60.41;101073.75;5144206;27;20039;-64
2023/07/30 10:37:46;;;;;;;8.48;2.17;;;;;;;19.32;60.26;101066.66;5134088;28;20059;-64
2023/07/30 10:40:18;;;;;;;7.45;2.58;;;;;;;19.28;59.57;101090.91;5135711;28;20054;-63
2023/07/30 10:42:49;;;;;;;9.05;2.90;;;;;;;19.28;59.39;101093.63;5144495;27;20039;-62
2023/07/30 10:45:16;;;;;;;10.27;2.80;;;;;;;19.28;59.61;101090.91;5143421;28;20043;-64
2023/07/30 10:47:44;;;;;;;6.85;2.30;;;;;;;19.29;59.71;101095.25;5136490;28;20099;-64
2023/07/30 10:50:14;;;;;;;6.18;1.90;;;;;;;19.31;59.76;101092.25;5143861;28;20062;-64
2023/07/30 10:52:42;;;;;;;9.15;2.60;;;;;;;19.34;59.69;101091.72;5142030;28;20051;-63
2023/07/30 10:55:10;;;;;;;8.30;2.03;;;;;;;19.38;59.71;101088.16;5141751;28;20050;-65
2023/07/30 10:57:40;;;;;;;8.73;1.95;;;;;;;19.41;59.38;101086.81;5144719;28;20043;-64
2023/07/30 11:00:11;;;;;;;6.70;1.88;;;;;;;19.41;59.51;101086.81;5140523;28;20201;-65
2023/07/30 11:02:40;;;;;;;6.85;1.73;;;;;;;19.42;59.71;101094.72;5143934;28;20043;-65
2023/07/30 11:05:14;;;;;;;5.30;1.75;;;;;;;19.43;59.32;101092.78;5144738;28;20130;-64
2023/07/30 11:07:50;;;;;;;5.78;1.88;;;;;;;19.46;59.28;101101.25;5136556;28;20088;-64
2023/07/30 11:10:18;;;;;;;9.80;2.05;;;;;;;19.46;59.16;101101.25;5142579;28;20112;-64
2023/07/30 11:12:46;;;;;;;6.20;1.27;;;;;;;19.48;59.03;101101.78;5141157;28;20051;-64
2023/07/30 11:15:15;;;;;;;6.68;1.70;;;;;;;19.50;59.50;101107.78;5142956;28;20043;-64
2023/07/30 11:17:44;;;;;;;5.85;1.70;;;;;;;19.54;59.66;101104.53;5144465;28;20055;-64
2023/07/30 11:20:23;;;;;;;7.07;2.25;;;;;;;19.53;58.67;101106.44;5145408;27;20047;-64
2023/07/30 11:22:50;;;;;;;7.57;2.10;;;;;;;19.52;58.56;101102.09;5143867;27;20047;-63
2023/07/30 11:25:26;;;;;;;7.82;2.33;;;;;;;19.51;58.62;101111.31;5146950;27;20134;-64
2023/07/30 11:27:54;;;;;;;8.13;2.42;;;;;;;19.50;58.62;101110.50;5143301;27;20081;-64